createdAt,value
2022-08-30T00:01:56.212Z,56.26
2022-08-30T00:04:30.969Z,56.29
2022-08-30T00:07:06.259Z,55.42
2022-08-30T00:09:44.674Z,55.65
2022-08-30T00:12:17.442Z,56.64
2022-08-30T00:15:01.181Z,56.99
2022-08-30T00:17:41.046Z,58.11
2022-08-30T00:20:25.178Z,58.32
2022-08-30T00:23:00.623Z,58.54
2022-08-30T00:25:45.498Z,58.00
2022-08-30T00:28:26.463Z,58.51
2022-08-30T00:31:00.879Z,58.90
2022-08-30T00:33:40.914Z,58.77
2022-08-30T00:36:22.424Z,58.63
2022-08-30T00:39:04.628Z,57.59
2022-08-30T00:41:42.534Z,58.43
2022-08-30T00:44:16.274Z,59.61
2022-08-30T00:46:48.673Z,58.93
2022-08-30T00:49:21.696Z,59.61
2022-08-30T00:51:58.172Z,60.39
2022-08-30T00:54:43.893Z,59.45
2022-08-30T00:57:17.758Z,60.15
2022-08-30T00:59:53.204Z,60.28
2022-08-30T01:02:36.053Z,59.97
2022-08-30T01:05:19.248Z,60.28
2022-08-30T01:07:53.362Z,60.52
2022-08-30T01:10:26.608Z,60.58
2022-08-30T01:13:19.613Z,60.83
2022-08-30T01:16:00.735Z,60.51
2022-08-30T01:18:55.795Z,60.96
2022-08-30T01:22:01.197Z,60.47
2022-08-30T01:24:34.740Z,60.79
2022-08-30T01:27:18.438Z,61.27
2022-08-30T01:29:53.975Z,60.51
2022-08-30T01:32:31.420Z,60.73
2022-08-30T01:35:07.366Z,61.24
2022-08-30T01:37:46.302Z,61.03
2022-08-30T01:40:23.923Z,61.02
2022-08-30T01:42:59.450Z,60.72
2022-08-30T01:45:29.512Z,61.07
2022-08-30T01:48:06.590Z,61.30
2022-08-30T01:50:46.949Z,61.52
2022-08-30T01:53:20.611Z,61.38
2022-08-30T01:55:57.826Z,61.67
2022-08-30T01:58:41.387Z,62.61
2022-08-30T02:01:27.711Z,62.40
2022-08-30T02:04:29.703Z,62.32
2022-08-30T02:07:22.699Z,62.24
2022-08-30T02:10:32.857Z,62.26
2022-08-30T02:14:01.959Z,62.89
2022-08-30T02:16:44.444Z,62.51
2022-08-30T02:20:05.176Z,62.36
2022-08-30T02:22:49.173Z,62.50
2022-08-30T02:25:32.714Z,61.80
2022-08-30T02:28:22.803Z,62.18
2022-08-30T02:31:02.771Z,62.60
2022-08-30T02:33:55.045Z,62.71
2022-08-30T02:36:35.146Z,62.40
2022-08-30T02:39:21.228Z,62.70
2022-08-30T02:41:57.146Z,63.15
2022-08-30T02:44:37.046Z,62.99
2022-08-30T02:47:09.266Z,63.63
2022-08-30T02:49:42.952Z,62.86
2022-08-30T02:52:17.998Z,63.04
2022-08-30T02:54:49.255Z,63.29
2022-08-30T02:57:28.947Z,62.82
2022-08-30T03:00:16.431Z,62.35
2022-08-30T03:03:03.387Z,63.40
2022-08-30T03:05:57.571Z,63.14
2022-08-30T03:08:34.041Z,63.42
2022-08-30T03:11:17.869Z,63.38
2022-08-30T03:14:04.696Z,63.19
2022-08-30T03:17:06.235Z,62.76
2022-08-30T03:19:47.453Z,63.27
2022-08-30T03:22:21.898Z,63.20
2022-08-30T03:25:03.950Z,63.66
2022-08-30T03:27:38.205Z,63.05
2022-08-30T03:30:18.527Z,63.53
2022-08-30T03:32:54.004Z,63.61
2022-08-30T03:35:47.030Z,64.04
2022-08-30T03:38:28.721Z,63.70
2022-08-30T03:41:07.535Z,63.77
2022-08-30T03:44:02.277Z,64.17
2022-08-30T03:46:48.741Z,63.82
2022-08-30T03:49:28.593Z,64.21
2022-08-30T03:52:23.230Z,64.58
2022-08-30T03:56:46.872Z,65.00
2022-08-30T03:59:04.395Z,64.81
2022-08-30T04:02:04.064Z,64.46
2022-08-30T04:04:42.730Z,64.81
2022-08-30T04:07:16.945Z,64.37
2022-08-30T04:09:55.628Z,65.08
2022-08-30T04:12:51.453Z,65.66
2022-08-30T04:15:31.181Z,65.27
2022-08-30T04:18:18.174Z,64.99
2022-08-30T04:20:56.278Z,64.37
2022-08-30T04:23:34.453Z,64.49
2022-08-30T04:26:29.439Z,64.72
2022-08-30T04:29:00.248Z,64.45
2022-08-30T04:31:30.483Z,64.67
2022-08-30T04:34:10.683Z,64.92
2022-08-30T04:36:41.731Z,65.07
2022-08-30T04:39:26.793Z,65.16
2022-08-30T04:41:59.379Z,64.87
2022-08-30T04:44:30.585Z,65.69
2022-08-30T04:47:11.387Z,65.45
2022-08-30T04:49:45.263Z,64.64
2022-08-30T04:52:23.198Z,64.27
2022-08-30T04:55:02.023Z,64.88
2022-08-30T04:57:37.979Z,64.89
2022-08-30T05:00:21.412Z,65.03
2022-08-30T05:03:11.000Z,65.53
2022-08-30T05:05:42.131Z,65.15
2022-08-30T05:08:25.668Z,65.33
2022-08-30T05:10:59.269Z,65.32
2022-08-30T05:13:36.811Z,65.61
2022-08-30T05:16:23.947Z,64.30
2022-08-30T05:19:03.495Z,64.40
2022-08-30T05:21:37.226Z,64.72
2022-08-30T05:24:13.290Z,64.81
2022-08-30T05:26:49.191Z,64.78
2022-08-30T05:29:39.896Z,64.82
2022-08-30T05:32:23.494Z,64.50
2022-08-30T05:35:05.799Z,64.17
2022-08-30T05:37:36.725Z,64.30
2022-08-30T05:40:13.618Z,64.35
2022-08-30T05:42:45.547Z,64.21
2022-08-30T05:45:21.433Z,64.55
2022-08-30T05:47:59.101Z,63.98
2022-08-30T05:50:42.140Z,63.94
2022-08-30T05:53:25.473Z,63.54
2022-08-30T05:56:32.249Z,63.42
2022-08-30T05:59:22.232Z,63.73
2022-08-30T06:02:11.360Z,62.92
2022-08-30T06:04:57.190Z,62.78
2022-08-30T06:07:51.274Z,63.27
2022-08-30T06:10:55.040Z,63.31
2022-08-30T06:13:53.586Z,63.45
2022-08-30T06:16:32.729Z,62.71
2022-08-30T06:19:21.526Z,62.71
2022-08-30T06:22:02.335Z,62.15
2022-08-30T06:24:56.883Z,62.16
2022-08-30T06:27:31.345Z,62.57
2022-08-30T06:30:15.775Z,62.41
2022-08-30T06:33:10.044Z,61.98
2022-08-30T06:35:58.553Z,61.71
2022-08-30T06:38:39.781Z,61.72
2022-08-30T06:41:46.074Z,61.38
2022-08-30T06:44:18.864Z,61.34
2022-08-30T06:46:56.635Z,61.36
2022-08-30T06:49:27.044Z,61.24
2022-08-30T06:55:03.970Z,60.32
2022-08-30T06:57:52.858Z,60.26
2022-08-30T07:00:33.724Z,60.12
2022-08-30T07:03:10.633Z,60.13
2022-08-30T07:06:00.821Z,60.20
2022-08-30T07:08:40.738Z,59.77
2022-08-30T07:11:42.357Z,60.51
2022-08-30T07:14:22.233Z,59.13
2022-08-30T07:17:34.010Z,59.51
2022-08-30T07:20:15.433Z,59.11
2022-08-30T07:23:01.616Z,58.57
2022-08-30T07:25:36.049Z,58.93
2022-08-30T07:28:14.217Z,58.33
2022-08-30T07:31:12.076Z,58.26
2022-08-30T07:33:57.189Z,58.19
2022-08-30T07:36:42.065Z,58.07
2022-08-30T07:39:20.297Z,57.26
2022-08-30T07:41:56.611Z,57.60
2022-08-30T07:44:34.724Z,57.08
2022-08-30T07:47:18.151Z,56.48
2022-08-30T07:50:11.513Z,57.70
2022-08-30T07:52:48.175Z,57.51
2022-08-30T07:55:31.003Z,57.33
2022-08-30T07:58:05.518Z,57.08
2022-08-30T08:01:00.937Z,57.10
2022-08-30T08:03:50.545Z,57.26
2022-08-30T08:06:35.313Z,57.05
2022-08-30T08:09:13.611Z,56.06
2022-08-30T08:11:58.220Z,56.47
2022-08-30T08:17:34.563Z,56.51
2022-08-30T08:20:22.162Z,56.00
2022-08-30T08:23:11.549Z,56.36
2022-08-30T08:26:05.555Z,57.05
2022-08-30T08:28:54.690Z,57.22
2022-08-30T08:31:33.739Z,57.19
2022-08-30T08:34:28.508Z,56.42
2022-08-30T08:37:35.116Z,56.45
2022-08-30T08:40:27.389Z,55.87
2022-08-30T08:43:30.626Z,55.93
2022-08-30T08:47:05.341Z,54.24
2022-08-30T08:50:03.596Z,54.81
2022-08-30T08:54:05.960Z,54.59
2022-08-30T08:56:49.384Z,55.03
2022-08-30T08:59:49.506Z,54.67
2022-08-30T09:02:51.622Z,54.87
2022-08-30T09:05:59.895Z,54.62
2022-08-30T09:08:53.702Z,53.74
2022-08-30T09:11:51.721Z,54.26
2022-08-30T09:15:09.502Z,53.91
2022-08-30T09:18:12.995Z,53.66
2022-08-30T09:21:07.516Z,53.78
2022-08-30T09:24:09.369Z,53.55
2022-08-30T09:26:56.892Z,53.60
2022-08-30T09:29:40.215Z,53.17
2022-08-30T09:32:55.670Z,52.33
2022-08-30T09:36:35.274Z,53.49
2022-08-30T09:39:43.869Z,52.64
2022-08-30T09:42:33.635Z,52.98
2022-08-30T09:45:39.229Z,51.85
2022-08-30T09:48:40.281Z,51.70
2022-08-30T09:51:52.769Z,51.01
2022-08-30T09:54:35.717Z,51.04
2022-08-30T09:57:36.344Z,51.91
2022-08-30T10:00:23.494Z,50.97
2022-08-30T10:03:43.814Z,49.89
2022-08-30T10:07:11.981Z,52.32
2022-08-30T10:10:28.043Z,49.09
2022-08-30T10:13:43.346Z,49.06
2022-08-30T10:17:03.890Z,49.42
2022-08-30T10:20:31.362Z,48.82
2022-08-30T10:23:32.788Z,48.66
2022-08-30T10:26:51.528Z,47.02
2022-08-30T10:29:32.632Z,47.02
2022-08-30T10:32:33.660Z,46.96
2022-08-30T10:35:17.493Z,45.86
2022-08-30T10:38:20.448Z,46.35
2022-08-30T10:41:14.633Z,45.45
2022-08-30T10:44:29.512Z,44.86
2022-08-30T10:47:29.742Z,44.25
2022-08-30T10:50:29.666Z,44.21
2022-08-30T10:53:16.825Z,44.67
2022-08-30T10:56:00.932Z,43.55
2022-08-30T10:58:32.157Z,43.88
2022-08-30T11:02:04.920Z,43.96
2022-08-30T11:04:54.348Z,43.36
2022-08-30T11:08:20.497Z,42.24
2022-08-30T11:11:42.494Z,42.63
2022-08-30T11:14:17.100Z,41.72
2022-08-30T11:16:51.624Z,40.93
2022-08-30T11:19:38.049Z,41.29
2022-08-30T11:26:20.545Z,39.91
2022-08-30T11:28:47.830Z,39.63
2022-08-30T11:31:20.954Z,38.60
2022-08-30T11:33:59.569Z,39.55
2022-08-30T11:36:46.203Z,38.16
2022-08-30T11:39:50.048Z,37.66
2022-08-30T11:42:48.299Z,38.67
2022-08-30T11:45:26.907Z,39.12
2022-08-30T11:48:28.724Z,37.05
2022-08-30T11:51:39.657Z,36.85
2022-08-30T11:54:57.829Z,37.10
2022-08-30T11:58:07.800Z,36.59
2022-08-30T12:00:52.951Z,35.52
2022-08-30T12:03:33.563Z,36.11
2022-08-30T12:06:08.369Z,37.06
2022-08-30T12:08:36.172Z,38.38
2022-08-30T12:11:13.420Z,36.32
2022-08-30T12:13:43.286Z,37.17
2022-08-30T12:16:19.938Z,37.26
2022-08-30T12:19:18.999Z,36.85
2022-08-30T12:22:01.347Z,37.40
2022-08-30T12:24:43.712Z,38.89
2022-08-30T12:27:33.330Z,37.72
2022-08-30T12:30:12.089Z,37.11
2022-08-30T12:32:48.790Z,37.36
2022-08-30T12:35:28.307Z,37.22
2022-08-30T12:38:12.376Z,36.69
2022-08-30T12:40:54.472Z,37.49
2022-08-30T12:43:48.540Z,37.79
2022-08-30T12:46:20.691Z,37.82
2022-08-30T12:48:49.368Z,39.11
2022-08-30T12:51:42.988Z,38.45
2022-08-30T12:54:24.268Z,37.90
2022-08-30T12:57:25.333Z,38.33
2022-08-30T12:59:59.673Z,39.08
2022-08-30T13:02:53.266Z,39.37
2022-08-30T13:05:44.502Z,39.36
2022-08-30T13:08:37.194Z,39.17
2022-08-30T13:11:22.881Z,39.26
2022-08-30T13:14:32.899Z,39.48
2022-08-30T13:17:21.849Z,38.24
2022-08-30T13:20:12.303Z,39.04
2022-08-30T13:23:06.121Z,38.92
2022-08-30T13:25:36.116Z,38.43
2022-08-30T13:28:06.984Z,37.73
2022-08-30T13:30:35.444Z,38.53
2022-08-30T13:33:03.580Z,38.85
2022-08-30T13:35:32.433Z,38.74
2022-08-30T13:38:02.367Z,38.25
2022-08-30T13:40:29.782Z,39.51
2022-08-30T13:42:58.671Z,39.43
2022-08-30T13:45:42.245Z,39.29
2022-08-30T13:48:11.766Z,37.95
2022-08-30T13:50:39.619Z,38.59
2022-08-30T13:53:09.310Z,37.86
2022-08-30T13:55:40.693Z,37.25
2022-08-30T13:58:09.670Z,39.49
2022-08-30T14:00:40.836Z,38.14
2022-08-30T14:03:10.648Z,37.07
2022-08-30T14:05:50.082Z,39.21
2022-08-30T14:08:47.594Z,39.34
2022-08-30T14:11:21.128Z,37.50
2022-08-30T14:16:44.219Z,38.18
2022-08-30T14:19:15.335Z,38.84
2022-08-30T14:21:43.486Z,40.17
2022-08-30T14:24:14.758Z,39.45
2022-08-30T14:26:52.735Z,40.46
2022-08-30T14:29:29.751Z,40.70
2022-08-30T14:31:58.451Z,40.67
2022-08-30T14:34:27.484Z,40.45
2022-08-30T14:36:56.290Z,40.47
2022-08-30T14:39:24.061Z,40.68
2022-08-30T14:41:55.300Z,40.49
2022-08-30T14:44:25.125Z,40.79
2022-08-30T14:46:53.246Z,41.31
2022-08-30T14:49:21.997Z,41.45
2022-08-30T14:51:50.930Z,41.64
2022-08-30T14:54:25.438Z,42.20
2022-08-30T14:56:55.177Z,42.73
2022-08-30T14:59:24.824Z,43.13
2022-08-30T15:01:53.100Z,42.90
2022-08-30T15:04:21.500Z,42.13
2022-08-30T15:06:51.722Z,42.48
2022-08-30T15:09:24.626Z,41.91
2022-08-30T15:11:58.830Z,41.65
2022-08-30T15:14:32.316Z,41.75
2022-08-30T15:17:02.785Z,42.01
2022-08-30T15:19:33.141Z,42.10
2022-08-30T15:22:05.692Z,42.03
2022-08-30T15:24:34.625Z,42.48
2022-08-30T15:27:03.185Z,42.65
2022-08-30T15:29:31.828Z,42.61
2022-08-30T15:32:01.741Z,42.72
2022-08-30T15:34:31.519Z,42.74
2022-08-30T15:36:59.115Z,42.24
2022-08-30T15:39:26.793Z,42.41
2022-08-30T15:41:57.363Z,42.32
2022-08-30T15:44:27.813Z,42.54
2022-08-30T15:46:55.184Z,42.56
2022-08-30T15:49:24.562Z,42.53
2022-08-30T15:51:54.685Z,42.40
2022-08-30T15:54:23.915Z,42.94
2022-08-30T15:56:59.087Z,42.74
2022-08-30T15:59:31.166Z,43.41
2022-08-30T16:01:58.755Z,44.45
2022-08-30T16:04:26.895Z,45.10
2022-08-30T16:06:57.912Z,45.19
2022-08-30T16:09:30.003Z,45.38
2022-08-30T16:12:03.170Z,46.31
2022-08-30T16:14:33.639Z,46.08
2022-08-30T16:17:02.052Z,46.94
2022-08-30T16:19:29.761Z,47.23
2022-08-30T16:21:57.772Z,46.87
2022-08-30T16:24:25.953Z,47.16
2022-08-30T16:26:54.096Z,46.81
2022-08-30T16:29:21.857Z,47.34
2022-08-30T16:31:49.896Z,47.43
2022-08-30T16:34:22.337Z,48.24
2022-08-30T16:36:49.935Z,48.45
2022-08-30T16:39:17.789Z,48.43
2022-08-30T16:41:46.433Z,47.52
2022-08-30T16:44:16.031Z,45.75
2022-08-30T16:46:53.261Z,45.16
2022-08-30T16:49:23.370Z,44.82
2022-08-30T16:51:53.486Z,43.28
2022-08-30T16:54:21.178Z,42.77
2022-08-30T16:56:48.825Z,42.87
2022-08-30T16:59:16.793Z,42.84
2022-08-30T17:01:44.899Z,42.43
2022-08-30T17:04:13.941Z,42.33
2022-08-30T17:06:50.401Z,41.97
2022-08-30T17:09:19.472Z,42.29
2022-08-30T17:11:48.621Z,41.97
2022-08-30T17:14:22.948Z,42.18
2022-08-30T17:17:00.646Z,42.18
2022-08-30T17:19:29.808Z,41.94
2022-08-30T17:21:58.466Z,42.10
2022-08-30T17:24:27.188Z,42.19
2022-08-30T17:26:54.640Z,42.74
2022-08-30T17:29:22.000Z,42.68
2022-08-30T17:31:51.013Z,43.75
2022-08-30T17:34:22.414Z,44.19
2022-08-30T17:36:52.594Z,44.44
2022-08-30T17:39:21.864Z,45.01
2022-08-30T17:41:50.712Z,46.12
2022-08-30T17:44:28.480Z,49.33
2022-08-30T17:46:58.264Z,46.51
2022-08-30T17:49:29.024Z,47.04
2022-08-30T17:51:59.808Z,48.21
2022-08-30T17:54:31.199Z,49.21
2022-08-30T17:56:59.630Z,48.09
2022-08-30T17:59:31.497Z,48.60
2022-08-30T18:02:02.860Z,47.84
2022-08-30T18:04:30.541Z,48.92
2022-08-30T18:06:58.760Z,48.17
2022-08-30T18:09:33.163Z,48.52
2022-08-30T18:12:01.384Z,49.46
2022-08-30T18:14:28.854Z,49.89
2022-08-30T18:16:56.165Z,49.73
2022-08-30T18:19:27.342Z,49.20
2022-08-30T18:21:55.778Z,49.70
2022-08-30T18:24:24.876Z,49.75
2022-08-30T18:26:54.703Z,49.42
2022-08-30T18:29:29.558Z,49.29
2022-08-30T18:32:03.388Z,49.36
2022-08-30T18:34:32.352Z,50.08
2022-08-30T18:37:01.009Z,49.46
2022-08-30T18:39:28.849Z,48.80
2022-08-30T18:42:06.129Z,50.28
2022-08-30T18:44:35.128Z,48.64
2022-08-30T18:47:05.477Z,48.86
2022-08-30T18:49:36.598Z,48.01
2022-08-30T18:52:09.760Z,48.53
2022-08-30T18:57:33.647Z,46.93
2022-08-30T19:00:21.147Z,46.56
2022-08-30T19:02:48.657Z,46.76
2022-08-30T19:05:22.781Z,46.58
2022-08-30T19:07:55.105Z,46.31
2022-08-30T19:10:27.944Z,46.10
2022-08-30T19:12:55.866Z,45.41
2022-08-30T19:15:23.330Z,45.21
2022-08-30T19:17:50.979Z,45.63
2022-08-30T19:20:24.426Z,44.73
2022-08-30T19:25:41.897Z,45.43
2022-08-30T19:28:11.877Z,45.69
2022-08-30T19:30:40.359Z,44.03
2022-08-30T19:33:07.931Z,44.24
2022-08-30T19:35:39.355Z,44.08
2022-08-30T19:38:06.673Z,44.34
2022-08-30T19:40:34.082Z,44.16
2022-08-30T19:43:01.748Z,44.16
2022-08-30T19:45:29.114Z,44.05
2022-08-30T19:47:57.789Z,44.09
2022-08-30T19:50:26.872Z,44.41
2022-08-30T19:52:55.256Z,44.65
2022-08-30T19:55:28.548Z,44.97
2022-08-30T19:57:57.922Z,44.93
2022-08-30T20:00:25.899Z,46.31
2022-08-30T20:02:54.005Z,47.93
2022-08-30T20:05:22.897Z,48.79
2022-08-30T20:07:51.386Z,51.00
2022-08-30T20:10:20.588Z,51.42
2022-08-30T20:12:49.863Z,52.44
2022-08-30T20:15:18.753Z,53.29
2022-08-30T20:18:05.683Z,54.46
2022-08-30T20:20:36.615Z,53.67
2022-08-30T20:23:05.897Z,54.30
2022-08-30T20:24:29.784Z,47.22
2022-08-30T20:24:33.437Z,45.17
2022-08-30T20:25:33.828Z,54.01
2022-08-30T20:28:01.331Z,53.24
2022-08-30T20:30:28.677Z,53.58
2022-08-30T20:32:57.264Z,53.65
2022-08-30T20:35:24.989Z,54.17
2022-08-30T20:37:54.748Z,53.89
2022-08-30T20:40:22.197Z,54.59
2022-08-30T20:42:52.012Z,54.36
2022-08-30T20:45:19.396Z,54.36
2022-08-30T20:47:46.751Z,54.22
2022-08-30T20:50:16.744Z,54.34
2022-08-30T20:52:44.797Z,54.21
2022-08-30T20:55:14.333Z,54.57
2022-08-30T20:57:42.050Z,53.94
2022-08-30T21:00:13.721Z,54.49
2022-08-30T21:02:46.304Z,53.97
2022-08-30T21:05:15.599Z,54.26
2022-08-30T21:07:46.644Z,54.31
2022-08-30T21:10:23.103Z,54.33
2022-08-30T21:12:54.042Z,53.91
2022-08-30T21:15:38.227Z,54.21
2022-08-30T21:18:15.580Z,53.75
2022-08-30T21:20:43.750Z,53.77
2022-08-30T21:23:11.531Z,54.48
2022-08-30T21:25:41.897Z,54.36
2022-08-30T21:28:10.139Z,54.27
2022-08-30T21:30:37.941Z,54.96
2022-08-30T21:33:08.125Z,56.81
2022-08-30T21:35:56.044Z,57.55
2022-08-30T21:38:23.432Z,57.85
2022-08-30T21:40:51.044Z,57.40
2022-08-30T21:43:20.445Z,57.35
2022-08-30T21:45:50.186Z,57.32
2022-08-30T21:48:17.701Z,57.14
2022-08-30T21:50:46.491Z,57.01
2022-08-30T21:53:15.434Z,57.18
2022-08-30T21:55:44.399Z,57.35
2022-08-30T21:58:11.870Z,57.67
2022-08-30T22:00:39.309Z,58.06
2022-08-30T22:03:06.708Z,58.54
2022-08-30T22:05:35.049Z,58.84
2022-08-30T22:08:03.312Z,59.01
2022-08-30T22:10:33.199Z,59.47
2022-08-30T22:13:03.630Z,59.41
2022-08-30T22:15:31.197Z,59.58
2022-08-30T22:17:58.528Z,59.59
2022-08-30T22:20:48.521Z,59.54
2022-08-30T22:23:19.125Z,59.11
2022-08-30T22:25:47.089Z,58.80
2022-08-30T22:28:15.162Z,58.93
2022-08-30T22:30:42.472Z,59.37
2022-08-30T22:33:09.905Z,59.27
2022-08-30T22:35:37.827Z,60.06
2022-08-30T22:38:05.860Z,60.28
2022-08-30T22:40:33.395Z,61.41
2022-08-30T22:43:02.108Z,62.26
2022-08-30T22:45:31.107Z,62.40
2022-08-30T22:47:58.777Z,62.89
2022-08-30T22:50:26.087Z,62.85
2022-08-30T22:52:53.391Z,62.32
2022-08-30T22:55:20.777Z,62.42
2022-08-30T22:57:48.084Z,61.98
2022-08-30T23:00:20.175Z,62.01
2022-08-30T23:02:52.374Z,62.15
2022-08-30T23:05:23.702Z,60.90
2022-08-30T23:07:52.239Z,60.26
2022-08-30T23:10:19.917Z,59.75
2022-08-30T23:12:47.332Z,60.51
2022-08-30T23:15:17.163Z,60.45
2022-08-30T23:17:44.455Z,59.93
2022-08-30T23:20:11.997Z,60.28
2022-08-30T23:22:40.157Z,60.14
2022-08-30T23:25:27.121Z,60.46
2022-08-30T23:28:20.573Z,60.54
2022-08-30T23:31:07.207Z,60.64
2022-08-30T23:33:53.043Z,60.25
2022-08-30T23:36:39.002Z,61.09
2022-08-30T23:39:24.772Z,60.53
2022-08-30T23:42:10.701Z,61.22
2022-08-30T23:44:56.531Z,61.14
2022-08-30T23:47:42.350Z,60.88
2022-08-30T23:50:28.408Z,60.57
2022-08-30T23:53:14.375Z,60.72
2022-08-30T23:56:01.108Z,60.99
2022-08-30T23:58:50.539Z,60.87
